CA34 weather

Flea Port Heliport
San Jose, California, United States

Public forecast

Using degrees Fahrenheit for public forecast. Weather courtesy of forecast.io.

METAR (pilot weather report)

Closest report is Norman Y. Mineta San Jose International Airport, 2.4 nm (4.5 km) WSW. Retrieved 2019/06/16 01:53 UTC (16 minutes ago):

KSJC 160153Z 33014KT 10SM FEW016 SCT080 BKN120 17/13 A2993 RMK AO2 SLP133 T01720128 $

TAF (pilot weather forecast)

Forecast is more than 12 hours old.

Closest forecast is Norman Y. Mineta San Jose International Airport, 2.4 nm (4.5 km) WSW. Retrieved 2019/06/15 00:36 UTC (1 day ago):

TAF KSJC 152333Z 1600/1624 31012KT P6SM SCT200 FM160400 30008KT P6SM SCT015 FM160600 30004KT P6SM OVC015 FM161700 30005KT P6SM SCT015 FM161900 31012KT P6SM SKC